createdAt,value
2022-11-05T00:02:16.557Z,39.15
2022-11-05T00:05:06.155Z,38.80
2022-11-05T00:08:03.005Z,37.97
2022-11-05T00:10:37.154Z,38.46
2022-11-05T00:13:28.848Z,37.70
2022-11-05T00:16:18.784Z,38.11
2022-11-05T00:19:07.857Z,37.69
2022-11-05T00:21:59.260Z,37.59
2022-11-05T00:24:49.731Z,37.03
2022-11-05T00:27:20.553Z,36.99
2022-11-05T00:29:51.268Z,36.67
2022-11-05T00:32:22.442Z,36.51
2022-11-05T00:34:52.701Z,36.75
2022-11-05T00:37:22.861Z,36.52
2022-11-05T00:39:53.458Z,36.98
2022-11-05T00:42:41.682Z,36.15
2022-11-05T00:45:12.727Z,36.32
2022-11-05T00:48:02.587Z,36.08
2022-11-05T00:50:33.938Z,36.43
2022-11-05T00:53:04.885Z,36.21
2022-11-05T00:55:46.382Z,36.06
2022-11-05T00:58:20.281Z,36.37
2022-11-05T01:00:53.316Z,36.22
2022-11-05T01:03:32.053Z,36.16
2022-11-05T01:06:08.118Z,35.97
2022-11-05T01:08:39.388Z,35.82
2022-11-05T01:11:34.343Z,35.77
2022-11-05T01:14:11.076Z,35.85
2022-11-05T01:16:42.524Z,35.51
2022-11-05T01:19:13.465Z,35.72
2022-11-05T01:21:43.479Z,35.82
2022-11-05T01:24:14.737Z,35.65
2022-11-05T01:26:44.780Z,35.72
2022-11-05T01:29:15.738Z,35.25
2022-11-05T01:31:46.844Z,35.58
2022-11-05T01:34:19.473Z,35.82
2022-11-05T01:36:51.651Z,35.33
2022-11-05T01:39:23.330Z,35.35
2022-11-05T01:41:55.377Z,35.41
2022-11-05T01:44:44.652Z,35.14
2022-11-05T01:47:35.292Z,35.40
2022-11-05T01:50:33.719Z,35.19
2022-11-05T01:53:18.138Z,35.15
2022-11-05T01:56:06.105Z,35.25
2022-11-05T01:58:51.635Z,35.08
2022-11-05T02:01:24.341Z,35.18
2022-11-05T02:03:59.697Z,35.29
2022-11-05T02:06:33.592Z,35.27
2022-11-05T02:09:08.424Z,35.16
2022-11-05T02:11:38.778Z,35.18
2022-11-05T02:14:08.769Z,34.87
2022-11-05T02:16:44.711Z,35.38
2022-11-05T02:19:27.871Z,34.96
2022-11-05T02:22:24.254Z,35.12
2022-11-05T02:25:17.211Z,34.75
2022-11-05T02:28:06.529Z,34.93
2022-11-05T02:31:25.817Z,34.62
2022-11-05T02:34:15.631Z,34.74
2022-11-05T02:39:58.026Z,33.93
2022-11-05T02:42:58.104Z,34.91
2022-11-05T02:45:31.829Z,34.05
2022-11-05T02:48:17.809Z,34.17
2022-11-05T02:51:12.585Z,33.77
2022-11-05T02:53:58.227Z,34.59
2022-11-05T02:56:37.989Z,34.11
2022-11-05T02:59:08.757Z,34.20
2022-11-05T03:01:41.789Z,34.04
2022-11-05T03:04:16.950Z,33.82
2022-11-05T03:07:06.221Z,32.87
2022-11-05T03:09:40.657Z,33.24
2022-11-05T03:12:41.704Z,33.93
2022-11-05T03:15:42.709Z,33.90
2022-11-05T03:18:31.462Z,34.06
2022-11-05T03:21:24.718Z,33.08
2022-11-05T03:24:06.277Z,33.28
2022-11-05T03:26:50.796Z,32.82
2022-11-05T03:29:32.506Z,33.55
2022-11-05T03:32:08.352Z,34.13
2022-11-05T03:34:55.161Z,32.75
2022-11-05T03:37:29.786Z,33.76
2022-11-05T03:40:03.765Z,32.71
2022-11-05T03:42:37.721Z,32.07
2022-11-05T03:45:23.672Z,30.81
2022-11-05T03:47:57.290Z,33.60
2022-11-05T03:50:54.398Z,33.33
2022-11-05T03:53:30.181Z,32.55
2022-11-05T03:56:06.379Z,30.03
2022-11-05T03:58:38.058Z,32.77
2022-11-05T04:01:08.286Z,31.50
2022-11-05T04:03:39.397Z,31.75
2022-11-05T04:06:27.657Z,32.62
2022-11-05T04:09:16.955Z,32.52
2022-11-05T04:12:04.978Z,32.51
2022-11-05T04:14:35.772Z,32.99
2022-11-05T04:17:09.585Z,30.45
2022-11-05T04:20:03.177Z,32.56
2022-11-05T04:22:55.181Z,31.23
2022-11-05T04:25:27.573Z,30.06
2022-11-05T04:28:05.684Z,32.57
2022-11-05T04:30:37.253Z,31.13
2022-11-05T04:33:19.509Z,32.40
2022-11-05T04:35:53.530Z,32.53
2022-11-05T04:38:23.524Z,31.57
2022-11-05T04:40:54.322Z,31.75
2022-11-05T04:43:28.623Z,30.88
2022-11-05T04:46:00.052Z,32.45
2022-11-05T04:48:45.548Z,32.39
2022-11-05T04:51:16.673Z,31.75
2022-11-05T04:53:49.425Z,32.11
2022-11-05T04:56:26.236Z,31.72
2022-11-05T04:58:57.172Z,32.27
2022-11-05T05:01:27.896Z,31.96
2022-11-05T05:03:59.967Z,31.09
2022-11-05T05:06:30.201Z,29.82
2022-11-05T05:09:00.681Z,31.29
2022-11-05T05:11:31.823Z,29.95
2022-11-05T05:14:06.388Z,30.44
2022-11-05T05:17:12.960Z,30.95
2022-11-05T05:20:01.742Z,31.23
2022-11-05T05:22:33.303Z,31.42
2022-11-05T05:25:04.762Z,30.46
2022-11-05T05:27:39.005Z,31.09
2022-11-05T05:30:08.978Z,31.67
2022-11-05T05:32:42.675Z,31.11
2022-11-05T05:35:14.664Z,30.37
2022-11-05T05:37:46.181Z,32.00
2022-11-05T05:40:17.628Z,30.38
2022-11-05T05:42:50.472Z,31.84
2022-11-05T05:45:23.173Z,31.66
2022-11-05T05:47:55.303Z,31.46
2022-11-05T05:50:27.884Z,30.39
2022-11-05T05:53:00.562Z,30.86
2022-11-05T05:55:32.578Z,30.83
2022-11-05T05:58:13.252Z,30.71
2022-11-05T06:00:43.417Z,30.32
2022-11-05T06:03:13.866Z,28.62
2022-11-05T06:05:45.093Z,30.97
2022-11-05T06:08:17.389Z,30.95
2022-11-05T06:10:57.879Z,30.43
2022-11-05T06:13:30.323Z,30.26
2022-11-05T06:16:11.001Z,29.92
2022-11-05T06:18:41.367Z,30.96
2022-11-05T06:21:16.370Z,30.73
2022-11-05T06:23:51.442Z,29.23
2022-11-05T06:26:22.948Z,29.98
2022-11-05T06:28:58.584Z,28.17
2022-11-05T06:31:30.172Z,29.60
2022-11-05T06:34:01.727Z,29.59
2022-11-05T06:36:33.848Z,27.63
2022-11-05T06:39:05.522Z,30.43
2022-11-05T06:41:56.901Z,30.41
2022-11-05T06:44:29.595Z,30.04
2022-11-05T06:47:01.885Z,30.10
2022-11-05T06:49:36.709Z,29.98
2022-11-05T06:52:08.423Z,31.04
2022-11-05T06:54:39.920Z,29.95
2022-11-05T06:57:12.489Z,30.61
2022-11-05T07:00:03.290Z,29.34
2022-11-05T07:02:42.799Z,29.92
2022-11-05T07:05:25.773Z,30.28
2022-11-05T07:07:56.224Z,29.92
2022-11-05T07:10:26.802Z,28.63
2022-11-05T07:12:57.917Z,29.38
2022-11-05T07:15:28.304Z,30.29
2022-11-05T07:18:04.227Z,29.60
2022-11-05T07:20:37.710Z,29.05
2022-11-05T07:23:09.412Z,30.04
2022-11-05T07:25:40.738Z,30.12
2022-11-05T07:28:12.200Z,30.48
2022-11-05T07:30:42.772Z,29.31
2022-11-05T07:33:14.152Z,29.85
2022-11-05T07:35:45.037Z,29.43
2022-11-05T07:38:15.445Z,30.70
2022-11-05T07:40:45.715Z,30.47
2022-11-05T07:43:17.726Z,30.17
2022-11-05T07:45:50.749Z,29.86
2022-11-05T07:48:21.084Z,30.22
2022-11-05T07:50:55.030Z,30.32
2022-11-05T07:53:26.417Z,30.39
2022-11-05T07:55:58.525Z,30.16
2022-11-05T07:58:30.505Z,30.23
2022-11-05T08:01:03.319Z,30.71
2022-11-05T08:03:35.071Z,30.34
2022-11-05T08:06:06.183Z,30.31
2022-11-05T08:08:37.427Z,30.07
2022-11-05T08:11:09.895Z,30.27
2022-11-05T08:13:41.758Z,30.75
2022-11-05T08:16:13.762Z,30.69
2022-11-05T08:18:47.199Z,30.61
2022-11-05T08:21:18.183Z,30.65
2022-11-05T08:23:52.401Z,30.03
2022-11-05T08:26:22.904Z,30.87
2022-11-05T08:28:55.846Z,30.66
2022-11-05T08:31:26.186Z,30.49
2022-11-05T08:34:02.175Z,30.70
2022-11-05T08:36:33.786Z,30.90
2022-11-05T08:39:05.358Z,30.31
2022-11-05T08:41:36.064Z,30.34
2022-11-05T08:44:08.018Z,30.68
2022-11-05T08:46:41.783Z,30.50
2022-11-05T08:49:14.135Z,30.43
2022-11-05T08:51:46.648Z,31.18
2022-11-05T08:54:18.426Z,30.92
2022-11-05T08:56:49.225Z,30.40
2022-11-05T08:59:21.541Z,30.97
2022-11-05T09:01:52.927Z,31.21
2022-11-05T09:04:23.773Z,31.37
2022-11-05T09:06:56.247Z,30.73
2022-11-05T09:09:27.344Z,30.86
2022-11-05T09:12:11.691Z,31.10
2022-11-05T09:14:43.346Z,30.88
2022-11-05T09:17:32.453Z,31.43
2022-11-05T09:20:06.418Z,31.81
2022-11-05T09:22:42.072Z,31.46
2022-11-05T09:25:14.332Z,31.80
2022-11-05T09:27:44.983Z,31.62
2022-11-05T09:30:16.912Z,31.51
2022-11-05T09:32:47.731Z,31.63
2022-11-05T09:35:19.154Z,31.84
2022-11-05T09:37:49.526Z,31.47
2022-11-05T09:40:21.944Z,31.47
2022-11-05T09:42:56.203Z,31.91
2022-11-05T09:45:31.144Z,31.95
2022-11-05T09:48:14.416Z,31.50
2022-11-05T09:50:49.552Z,32.19
2022-11-05T09:53:24.322Z,32.05
2022-11-05T09:55:58.712Z,32.16
2022-11-05T09:58:44.882Z,32.69
2022-11-05T10:01:26.895Z,32.64
2022-11-05T10:04:00.586Z,32.75
2022-11-05T10:06:31.182Z,32.65
2022-11-05T10:09:17.787Z,32.40
2022-11-05T10:12:09.049Z,32.19
2022-11-05T10:15:05.903Z,32.05
2022-11-05T10:17:39.810Z,32.20
2022-11-05T10:20:41.009Z,32.68
2022-11-05T10:23:23.514Z,32.39
2022-11-05T10:26:00.349Z,32.04
2022-11-05T10:28:33.639Z,32.39
2022-11-05T10:31:11.330Z,31.98
2022-11-05T10:33:44.673Z,31.97
2022-11-05T10:36:27.840Z,31.78
2022-11-05T10:39:07.405Z,32.49
2022-11-05T10:42:00.149Z,32.75
2022-11-05T10:44:44.792Z,33.05
2022-11-05T10:47:19.738Z,33.51
2022-11-05T10:50:03.676Z,32.25
2022-11-05T10:53:01.493Z,33.02
2022-11-05T10:55:39.365Z,32.93
2022-11-05T10:58:33.244Z,32.61
2022-11-05T11:01:14.087Z,32.87
2022-11-05T11:03:51.938Z,33.21
2022-11-05T11:06:22.303Z,33.72
2022-11-05T11:08:54.709Z,32.90
2022-11-05T11:11:38.758Z,32.66
2022-11-05T11:14:14.914Z,33.53
2022-11-05T11:16:54.051Z,33.11
2022-11-05T11:19:36.694Z,32.81
2022-11-05T11:22:08.269Z,33.53
2022-11-05T11:24:45.691Z,33.66
2022-11-05T11:27:27.670Z,33.46
2022-11-05T11:30:05.029Z,33.60
2022-11-05T11:32:42.792Z,33.32
2022-11-05T11:35:25.578Z,33.32
2022-11-05T11:38:00.030Z,33.16
2022-11-05T11:40:38.293Z,33.60
2022-11-05T11:43:29.269Z,33.28
2022-11-05T11:46:05.406Z,33.74
2022-11-05T11:48:41.891Z,33.27
2022-11-05T11:51:49.973Z,33.23
2022-11-05T11:54:28.530Z,33.63
2022-11-05T11:56:59.201Z,33.99
2022-11-05T12:00:02.006Z,34.00
2022-11-05T12:02:28.512Z,34.02
2022-11-05T12:05:21.687Z,33.95
2022-11-05T12:08:00.097Z,33.83
2022-11-05T12:10:47.989Z,33.84
2022-11-05T12:13:24.068Z,33.93
2022-11-05T12:16:20.078Z,34.36
2022-11-05T12:19:00.028Z,34.19
2022-11-05T12:21:57.644Z,33.72
2022-11-05T12:24:37.767Z,33.83
2022-11-05T12:27:35.831Z,34.11
2022-11-05T12:30:10.665Z,33.77
2022-11-05T12:33:19.125Z,33.96
2022-11-05T12:36:24.665Z,33.76
2022-11-05T12:39:27.032Z,34.39
2022-11-05T12:42:40.409Z,33.74
2022-11-05T12:45:40.475Z,34.15
2022-11-05T12:48:21.960Z,34.34
2022-11-05T12:51:13.470Z,34.36
2022-11-05T12:54:00.611Z,34.51
2022-11-05T12:56:38.070Z,34.43
2022-11-05T12:59:25.277Z,34.99
2022-11-05T13:02:19.059Z,34.86
2022-11-05T13:05:07.412Z,34.57
2022-11-05T13:07:42.872Z,35.41
2022-11-05T13:10:16.977Z,35.02
2022-11-05T13:12:52.633Z,35.47
2022-11-05T13:15:39.570Z,35.03
2022-11-05T13:18:20.865Z,35.49
2022-11-05T13:20:55.330Z,35.65
2022-11-05T13:23:42.340Z,35.70
2022-11-05T13:26:47.124Z,35.85
2022-11-05T13:29:53.848Z,34.81
2022-11-05T13:32:27.626Z,35.14
2022-11-05T13:35:00.968Z,35.39
2022-11-05T13:37:56.098Z,35.00
2022-11-05T13:40:51.424Z,35.57
2022-11-05T13:43:33.038Z,35.23
2022-11-05T13:46:09.601Z,35.62
2022-11-05T13:48:59.251Z,35.19
2022-11-05T13:51:49.599Z,36.16
2022-11-05T13:54:27.092Z,36.72
2022-11-05T13:57:20.932Z,36.43
2022-11-05T14:00:12.996Z,36.11
2022-11-05T14:03:00.669Z,36.46
2022-11-05T14:05:34.023Z,36.16
2022-11-05T14:08:21.669Z,36.37
2022-11-05T14:11:20.003Z,37.47
2022-11-05T14:13:57.352Z,37.23
2022-11-05T14:16:31.190Z,37.67
2022-11-05T14:19:21.372Z,36.74
2022-11-05T14:21:56.116Z,37.36
2022-11-05T14:24:45.539Z,36.66
2022-11-05T14:27:16.457Z,36.77
2022-11-05T14:29:49.625Z,37.23
2022-11-05T14:32:21.257Z,37.85
2022-11-05T14:35:19.987Z,36.88
2022-11-05T14:38:01.947Z,38.16
2022-11-05T14:40:49.213Z,37.05
2022-11-05T14:43:30.583Z,37.36
2022-11-05T14:46:10.587Z,37.81
2022-11-05T14:48:45.269Z,36.81
2022-11-05T14:51:27.593Z,36.69
2022-11-05T14:54:30.971Z,37.18
2022-11-05T14:57:05.279Z,37.47
2022-11-05T14:59:53.429Z,37.96
2022-11-05T15:02:29.272Z,37.31
2022-11-05T15:05:38.202Z,37.24
2022-11-05T15:08:26.939Z,37.68
2022-11-05T15:11:09.568Z,37.68
2022-11-05T15:14:05.545Z,37.04
2022-11-05T15:16:44.475Z,37.74
2022-11-05T15:19:24.737Z,36.59
2022-11-05T15:22:01.685Z,37.06
2022-11-05T15:24:35.485Z,36.74
2022-11-05T15:27:11.464Z,36.80
2022-11-05T15:29:44.431Z,36.57
2022-11-05T15:32:34.567Z,37.00
2022-11-05T15:35:26.476Z,36.59
2022-11-05T15:38:02.933Z,36.67
2022-11-05T15:40:35.141Z,36.82
2022-11-05T15:43:26.176Z,36.44
2022-11-05T15:46:04.330Z,37.07
2022-11-05T15:48:37.403Z,36.97
2022-11-05T15:51:09.697Z,36.46
2022-11-05T15:54:28.998Z,36.60
2022-11-05T15:57:01.040Z,36.45
2022-11-05T15:59:33.780Z,36.49
2022-11-05T16:02:29.702Z,36.97
2022-11-05T16:05:02.455Z,36.54
2022-11-05T16:07:34.321Z,36.50
2022-11-05T16:10:10.039Z,36.82
2022-11-05T16:12:43.207Z,36.80
2022-11-05T16:15:13.996Z,36.61
2022-11-05T16:17:53.708Z,36.55
2022-11-05T16:20:37.360Z,36.90
2022-11-05T16:23:25.806Z,36.84
2022-11-05T16:25:56.958Z,37.07
2022-11-05T16:28:31.835Z,36.83
2022-11-05T16:31:08.940Z,37.40
2022-11-05T16:33:59.732Z,36.71
2022-11-05T16:36:35.481Z,36.80
2022-11-05T16:39:06.622Z,37.01
2022-11-05T16:41:46.508Z,36.91
2022-11-05T16:44:18.194Z,36.90
2022-11-05T16:46:52.669Z,37.30
2022-11-05T16:49:24.282Z,37.01
2022-11-05T16:51:55.038Z,38.13
2022-11-05T16:54:25.698Z,38.39
2022-11-05T16:56:57.543Z,37.59
2022-11-05T16:59:28.368Z,37.52
2022-11-05T17:01:59.811Z,37.27
2022-11-05T17:04:30.403Z,36.80
2022-11-05T17:06:59.973Z,37.39
2022-11-05T17:09:29.947Z,38.06
2022-11-05T17:12:02.056Z,37.50
2022-11-05T17:14:32.605Z,38.14
2022-11-05T17:17:04.682Z,37.99
2022-11-05T17:19:34.914Z,37.93
2022-11-05T17:22:05.517Z,37.43
2022-11-05T17:24:35.752Z,37.78
2022-11-05T17:27:07.632Z,37.97
2022-11-05T17:29:40.021Z,38.36
2022-11-05T17:32:12.192Z,38.03
2022-11-05T17:34:42.818Z,37.98
2022-11-05T17:37:13.709Z,40.42
2022-11-05T17:39:44.117Z,38.68
2022-11-05T17:42:15.458Z,39.49
2022-11-05T17:44:46.596Z,39.43
2022-11-05T17:47:16.912Z,40.11
2022-11-05T17:49:47.905Z,39.83
2022-11-05T17:52:19.034Z,39.37
2022-11-05T17:54:50.814Z,39.60
2022-11-05T17:57:21.517Z,38.29
2022-11-05T17:59:52.100Z,39.06
2022-11-05T18:02:24.104Z,38.96
2022-11-05T18:04:55.269Z,38.69
2022-11-05T18:07:25.968Z,38.74
2022-11-05T18:09:57.024Z,39.04
2022-11-05T18:12:27.848Z,41.19
2022-11-05T18:14:58.157Z,40.17
2022-11-05T18:17:28.845Z,39.25
2022-11-05T18:19:59.404Z,39.92
2022-11-05T18:22:31.352Z,40.12
2022-11-05T18:25:03.697Z,38.78
2022-11-05T18:27:35.549Z,39.34
2022-11-05T18:30:09.726Z,39.51
2022-11-05T18:32:41.837Z,39.92
2022-11-05T18:35:14.714Z,39.63
2022-11-05T18:37:45.440Z,38.86
2022-11-05T18:40:16.165Z,39.14
2022-11-05T18:42:46.940Z,39.75
2022-11-05T18:45:17.562Z,39.63
2022-11-05T18:47:49.378Z,40.33
2022-11-05T18:50:20.720Z,40.01
2022-11-05T18:52:51.258Z,39.57
2022-11-05T18:55:22.838Z,39.93
2022-11-05T18:57:53.290Z,40.08
2022-11-05T19:00:23.368Z,39.04
2022-11-05T19:02:53.576Z,40.93
2022-11-05T19:05:29.507Z,40.45
2022-11-05T19:08:00.018Z,40.51
2022-11-05T19:10:30.439Z,40.62
2022-11-05T19:13:01.256Z,40.85
2022-11-05T19:15:31.269Z,40.15
2022-11-05T19:18:01.802Z,40.31
2022-11-05T19:20:37.502Z,40.04
2022-11-05T19:23:08.373Z,40.14
2022-11-05T19:25:40.787Z,41.43
2022-11-05T19:28:12.688Z,41.03
2022-11-05T19:30:43.863Z,40.43
2022-11-05T19:33:14.351Z,40.89
2022-11-05T19:35:44.662Z,41.04
2022-11-05T19:38:15.781Z,40.45
2022-11-05T19:40:45.853Z,40.38
2022-11-05T19:43:16.271Z,41.23
2022-11-05T19:45:46.268Z,40.74
2022-11-05T19:48:19.515Z,40.65
2022-11-05T19:50:50.068Z,40.97
2022-11-05T19:53:20.324Z,40.59
2022-11-05T19:55:51.371Z,40.59
2022-11-05T19:58:21.377Z,41.28
2022-11-05T20:00:51.984Z,41.73
2022-11-05T20:03:24.923Z,40.35
2022-11-05T20:05:54.937Z,40.69
2022-11-05T20:08:26.503Z,41.09
2022-11-05T20:10:57.250Z,41.27
2022-11-05T20:13:28.749Z,40.91
2022-11-05T20:15:59.575Z,41.65
2022-11-05T20:18:30.518Z,42.23
2022-11-05T20:21:08.480Z,42.14
2022-11-05T20:23:38.951Z,41.31
2022-11-05T20:26:10.919Z,41.95
2022-11-05T20:28:45.124Z,41.76
2022-11-05T20:31:18.311Z,41.72
2022-11-05T20:33:49.298Z,40.66
2022-11-05T20:36:26.033Z,42.17
2022-11-05T20:39:01.204Z,40.97
2022-11-05T20:41:32.789Z,41.73
2022-11-05T20:44:03.217Z,41.37
2022-11-05T20:46:35.452Z,41.22
2022-11-05T20:49:05.697Z,43.66
2022-11-05T20:51:36.528Z,42.55
2022-11-05T20:54:07.257Z,42.72
2022-11-05T20:56:38.547Z,41.59
2022-11-05T20:59:10.504Z,41.02
2022-11-05T21:01:40.897Z,42.47
2022-11-05T21:04:13.353Z,41.27
2022-11-05T21:06:44.646Z,40.90
2022-11-05T21:09:16.093Z,41.58
2022-11-05T21:12:04.097Z,41.48
2022-11-05T21:14:35.544Z,41.21
2022-11-05T21:17:06.941Z,41.19
2022-11-05T21:19:38.345Z,40.62
2022-11-05T21:22:09.081Z,42.38
2022-11-05T21:24:39.682Z,40.98
2022-11-05T21:27:10.755Z,42.09
2022-11-05T21:29:42.233Z,41.98
2022-11-05T21:32:12.994Z,41.74
2022-11-05T21:34:43.540Z,42.49
2022-11-05T21:37:13.545Z,41.49
2022-11-05T21:39:43.504Z,42.20
2022-11-05T21:42:13.425Z,41.66
2022-11-05T21:44:43.719Z,42.38
2022-11-05T21:47:14.134Z,42.46
2022-11-05T21:49:44.640Z,42.25
2022-11-05T21:52:32.624Z,42.42
2022-11-05T21:55:21.487Z,41.91
2022-11-05T21:58:09.608Z,41.29
2022-11-05T22:00:40.324Z,42.38
2022-11-05T22:03:10.429Z,41.49
2022-11-05T22:05:40.470Z,41.03
2022-11-05T22:08:10.645Z,42.64
2022-11-05T22:10:40.864Z,42.65
2022-11-05T22:13:10.798Z,41.33
2022-11-05T22:15:40.717Z,42.22
2022-11-05T22:18:11.035Z,42.47
2022-11-05T22:20:41.858Z,41.66
2022-11-05T22:23:11.825Z,41.54
2022-11-05T22:25:41.823Z,42.93
2022-11-05T22:28:12.188Z,41.34
2022-11-05T22:30:42.580Z,41.54
2022-11-05T22:33:12.490Z,41.29
2022-11-05T22:35:42.433Z,41.59
2022-11-05T22:38:14.103Z,41.16
2022-11-05T22:40:45.038Z,41.10
2022-11-05T22:43:15.278Z,41.23
2022-11-05T22:45:45.204Z,41.73
2022-11-05T22:48:15.541Z,41.17
2022-11-05T22:50:45.843Z,41.72
2022-11-05T22:53:15.805Z,41.54
2022-11-05T22:55:45.733Z,41.51
2022-11-05T22:58:15.822Z,41.27
2022-11-05T23:00:45.809Z,41.18
2022-11-05T23:03:15.742Z,41.54
2022-11-05T23:05:45.772Z,40.85
2022-11-05T23:08:34.740Z,44.46
2022-11-05T23:11:22.239Z,42.32
2022-11-05T23:13:52.463Z,42.61
2022-11-05T23:16:40.565Z,41.40
2022-11-05T23:19:29.497Z,41.35
2022-11-05T23:22:17.545Z,41.72
2022-11-05T23:24:49.762Z,41.17
2022-11-05T23:27:21.392Z,41.64
2022-11-05T23:29:52.253Z,42.07
2022-11-05T23:32:29.759Z,42.21
2022-11-05T23:35:01.215Z,45.30
2022-11-05T23:37:51.040Z,42.42
2022-11-05T23:40:25.065Z,42.40
2022-11-05T23:43:15.744Z,42.18
2022-11-05T23:46:04.765Z,43.23
2022-11-05T23:48:39.719Z,42.55
2022-11-05T23:51:14.313Z,41.61
2022-11-05T23:53:45.033Z,41.78
2022-11-05T23:56:17.845Z,42.52
2022-11-05T23:58:49.319Z,42.19
